createdAt,value
2022-08-28T00:00:00.838Z,173.216
2022-08-28T00:05:01.061Z,180.695
2022-08-28T00:10:00.944Z,182.315
2022-08-28T00:15:00.868Z,204.385
2022-08-28T00:20:00.937Z,303.869
2022-08-28T00:25:00.882Z,289.342
2022-08-28T00:30:01.072Z,281.318
2022-08-28T00:35:00.822Z,191.89600000000002
2022-08-28T00:40:01.004Z,169.267
2022-08-28T00:45:00.923Z,260.165
2022-08-28T00:50:00.917Z,206.43800000000002
2022-08-28T00:55:01.103Z,145.363
2022-08-28T01:00:00.891Z,201.622
2022-08-28T01:05:01.010Z,265.956
2022-08-28T01:10:00.895Z,259.396
2022-08-28T01:15:00.939Z,256.183
2022-08-28T01:20:01.105Z,153.51500000000001
2022-08-28T01:25:00.903Z,156.293
2022-08-28T01:30:01.071Z,170.344
2022-08-28T01:35:00.946Z,269.68
2022-08-28T01:40:00.994Z,196.201
2022-08-28T01:45:00.947Z,245.11100000000002
2022-08-28T01:50:00.998Z,276.88100000000003
2022-08-28T01:55:01.131Z,259.002
2022-08-28T02:00:00.948Z,245.567
2022-08-28T02:05:00.956Z,145.96
2022-08-28T02:10:01.014Z,145.899
2022-08-28T02:15:00.996Z,145.959
2022-08-28T02:20:01.208Z,145.518
2022-08-28T02:25:00.964Z,145.104
2022-08-28T02:30:01.009Z,386.507
2022-08-28T02:35:00.974Z,295.415
2022-08-28T02:40:01.080Z,294.36
2022-08-28T02:45:01.196Z,254.989
2022-08-28T02:50:01.009Z,182.399
2022-08-28T02:55:00.996Z,180.75300000000001
2022-08-28T03:00:01.092Z,172.453
2022-08-28T03:05:01.025Z,171.316
2022-08-28T03:10:01.168Z,170.492
2022-08-28T03:15:01.121Z,292.622
2022-08-28T03:20:01.060Z,405.657
2022-08-28T03:25:01.006Z,279.644
2022-08-28T03:30:01.012Z,207.883
2022-08-28T03:35:01.410Z,146.845
2022-08-28T03:40:01.091Z,146.57
2022-08-28T03:45:01.077Z,146.564
2022-08-28T03:50:01.309Z,1281.099
2022-08-28T03:55:01.045Z,3080.146
2022-08-28T04:00:01.101Z,2458.774
2022-08-28T04:05:01.039Z,282.627
2022-08-28T04:10:01.046Z,412.82800000000003
2022-08-28T04:15:01.254Z,199.511
2022-08-28T04:20:01.184Z,191.77700000000002
2022-08-28T04:25:01.105Z,206.011
2022-08-28T04:30:01.075Z,188.66400000000002
2022-08-28T04:35:01.098Z,228.734
2022-08-28T04:40:01.265Z,301.611
2022-08-28T04:45:01.117Z,373.05400000000003
2022-08-28T04:50:01.083Z,303.25100000000003
2022-08-28T04:55:01.086Z,292.884
2022-08-28T05:00:01.212Z,205.659
2022-08-28T05:05:01.295Z,333.731
2022-08-28T05:10:01.113Z,223.374
2022-08-28T05:15:01.183Z,229.565
2022-08-28T05:20:01.277Z,225.728
2022-08-28T05:25:01.128Z,288.105
2022-08-28T05:30:02.236Z,337.55
2022-08-28T05:35:01.161Z,323.517
2022-08-28T05:40:01.186Z,295.92900000000003
2022-08-28T05:45:01.297Z,209.751
2022-08-28T05:50:01.219Z,209.01500000000001
2022-08-28T05:55:01.298Z,248.364
2022-08-28T06:00:01.203Z,291.185
2022-08-28T06:05:01.183Z,191.661
2022-08-28T06:10:01.181Z,287.975
2022-08-28T06:15:01.146Z,299.442
2022-08-28T06:20:01.382Z,294.684
2022-08-28T06:25:01.168Z,252.458
2022-08-28T06:30:01.208Z,1051.434
2022-08-28T06:35:01.193Z,211.623
2022-08-28T06:40:01.228Z,239.47
2022-08-28T06:45:01.386Z,293.345
2022-08-28T06:50:01.237Z,412.555
2022-08-28T06:55:01.202Z,1994.8890000000001
2022-08-28T07:00:01.204Z,729.264
2022-08-28T07:05:01.209Z,712.162
2022-08-28T07:10:01.462Z,539.357
2022-08-28T07:15:01.263Z,295.784
2022-08-28T07:20:01.351Z,314.269
2022-08-28T07:25:01.240Z,300.311
2022-08-28T07:30:01.238Z,318.217
2022-08-28T07:35:01.510Z,336.603
2022-08-28T07:40:01.302Z,566.457
2022-08-28T07:45:01.300Z,423.798
2022-08-28T07:50:01.235Z,442.092
2022-08-28T07:55:01.243Z,348.399
2022-08-28T08:00:01.449Z,946.713
2022-08-28T08:05:01.392Z,2144.9230000000002
2022-08-28T08:10:01.263Z,1059.27
2022-08-28T08:15:01.308Z,259.04200000000003
2022-08-28T08:20:01.338Z,256.07800000000003
2022-08-28T08:25:01.572Z,447.31100000000004
2022-08-28T08:30:01.282Z,373.842
2022-08-28T08:35:01.297Z,330.842
2022-08-28T08:40:01.388Z,246.767
2022-08-28T08:45:01.324Z,181.387
2022-08-28T08:50:01.516Z,184.355
2022-08-28T08:55:01.309Z,205.774
2022-08-28T09:00:01.362Z,221.59
2022-08-28T09:05:01.324Z,260.64300000000003
2022-08-28T09:10:01.368Z,340.851
2022-08-28T09:15:01.513Z,330.872
2022-08-28T09:20:01.316Z,457.875
2022-08-28T09:25:01.349Z,207.106
2022-08-28T09:30:02.519Z,208.166
2022-08-28T09:35:01.368Z,213.35
2022-08-28T09:40:01.589Z,210.257
2022-08-28T09:45:01.380Z,205.487
2022-08-28T09:50:01.409Z,278.927
2022-08-28T09:55:01.343Z,322.484
2022-08-28T10:00:01.350Z,2530.245
2022-08-28T10:05:01.506Z,5512.506
2022-08-28T10:10:01.416Z,4225.488
2022-08-28T10:15:01.405Z,1113.926
2022-08-28T10:20:01.427Z,163.285
2022-08-28T10:25:01.443Z,154.9
2022-08-28T10:30:06.044Z,168.072
2022-08-28T10:35:01.445Z,287.596
2022-08-28T10:40:01.514Z,292.553
2022-08-28T10:45:01.407Z,286.767
2022-08-28T10:50:01.460Z,239.764
2022-08-28T10:55:01.597Z,179.72
2022-08-28T11:00:01.436Z,317.63
2022-08-28T11:05:01.509Z,187.187
2022-08-28T11:10:01.429Z,184.984
2022-08-28T11:15:01.577Z,194.773
2022-08-28T11:20:01.480Z,307.647
2022-08-28T11:25:04.529Z,297.57
2022-08-28T11:30:01.648Z,295.633
2022-08-28T11:35:01.487Z,222.647
2022-08-28T11:40:01.591Z,461.65000000000003
2022-08-28T11:45:01.486Z,488.253
2022-08-28T11:50:01.506Z,406.067
2022-08-28T11:55:01.647Z,169.744
2022-08-28T12:00:01.664Z,200.044
2022-08-28T12:05:01.540Z,306.536
2022-08-28T12:15:01.613Z,291.468
2022-08-28T12:20:01.762Z,233.322
2022-08-28T12:25:01.507Z,221.279
2022-08-28T12:30:01.714Z,224.657
2022-08-28T12:35:01.540Z,230.083
2022-08-28T12:40:01.553Z,2100.363
2022-08-28T12:45:01.554Z,3551.669
2022-08-28T12:50:01.630Z,1355.601
2022-08-28T12:55:01.711Z,306.964
2022-08-28T13:00:01.500Z,292.122
2022-08-28T13:05:01.624Z,199.506
2022-08-28T13:10:01.516Z,283.22
2022-08-28T13:15:01.603Z,401.056
2022-08-28T13:20:01.533Z,3320.835
2022-08-28T13:25:01.547Z,1983.384
2022-08-28T13:30:01.766Z,614.607
2022-08-28T13:35:01.570Z,479.577
2022-08-28T13:40:04.383Z,478.15500000000003
2022-08-28T13:45:01.602Z,430.178
2022-08-28T13:50:01.604Z,371.789
2022-08-28T13:55:01.587Z,372.13100000000003
2022-08-28T14:00:01.587Z,387.057
2022-08-28T14:05:01.719Z,385.81600000000003
2022-08-28T14:10:01.586Z,395.556
2022-08-28T14:15:01.821Z,510.11400000000003
2022-08-28T14:20:01.599Z,487.459
2022-08-28T14:25:01.592Z,497.181
2022-08-28T14:30:01.680Z,511.075
2022-08-28T14:35:01.598Z,390.196
2022-08-28T14:40:01.839Z,342.148
2022-08-28T14:45:01.672Z,357.64
2022-08-28T14:50:01.883Z,395.094
2022-08-28T14:55:01.620Z,437.28700000000003
2022-08-28T15:00:01.613Z,467.77500000000003
2022-08-28T15:05:01.620Z,426.221
2022-08-28T15:10:01.658Z,421.617
2022-08-28T15:15:01.655Z,315.198
2022-08-28T15:20:01.681Z,304.281
2022-08-28T15:25:01.869Z,653.621
2022-08-28T15:30:01.854Z,1131.827
2022-08-28T15:35:01.663Z,1334.511
2022-08-28T15:40:01.690Z,575.751
2022-08-28T15:45:01.721Z,750.6560000000001
2022-08-28T15:50:01.998Z,295.075
2022-08-28T15:55:01.699Z,298.051
2022-08-28T16:00:01.893Z,190.678
2022-08-28T16:05:01.796Z,213.618
2022-08-28T16:10:01.703Z,907.754
2022-08-28T16:15:01.724Z,250.99800000000002
2022-08-28T16:20:01.697Z,242.137
2022-08-28T16:25:01.915Z,444.373
2022-08-28T16:30:01.717Z,353.108
2022-08-28T16:35:01.864Z,300.749
2022-08-28T16:40:01.791Z,421.42
2022-08-28T16:45:01.835Z,352.043
2022-08-28T16:50:01.732Z,354.075
2022-08-28T16:55:01.730Z,177.06300000000002
2022-08-28T17:00:01.901Z,161.77
2022-08-28T17:05:01.751Z,173.895
2022-08-28T17:10:01.738Z,379.02500000000003
2022-08-28T17:15:01.754Z,278.984
2022-08-28T17:20:02.435Z,301.129
2022-08-28T17:25:01.931Z,282.122
2022-08-28T17:30:01.824Z,1294.029
2022-08-28T17:35:01.784Z,3121.564
2022-08-28T17:40:01.829Z,3337.464
2022-08-28T17:45:01.813Z,1591.765
2022-08-28T17:50:01.980Z,406.37600000000003
2022-08-28T17:55:01.777Z,707.908
2022-08-28T18:00:01.882Z,3273.318
2022-08-28T18:05:01.855Z,2487.137
2022-08-28T18:10:01.834Z,342.118
2022-08-28T18:15:01.806Z,183.31900000000002
2022-08-28T18:20:01.829Z,181.01500000000001
2022-08-28T18:25:01.975Z,181.026
2022-08-28T18:30:01.803Z,180.463
2022-08-28T18:35:01.805Z,323.184
2022-08-28T18:40:01.874Z,300.681
2022-08-28T18:45:01.854Z,292.549
2022-08-28T18:50:02.941Z,1233.026
2022-08-28T18:55:01.868Z,3169.332
2022-08-28T19:00:01.812Z,740.9590000000001
2022-08-28T19:05:01.806Z,157.651
2022-08-28T19:10:01.896Z,186.024
2022-08-28T19:15:01.970Z,188.418
2022-08-28T19:20:01.844Z,398.223
2022-08-28T19:25:01.891Z,474.355
2022-08-28T19:30:01.858Z,1234.385
2022-08-28T19:35:01.950Z,2623.9210000000003
2022-08-28T19:40:02.086Z,3188.312
2022-08-28T19:45:01.930Z,4812.3060000000005
2022-08-28T19:50:01.894Z,2313.852
2022-08-28T19:55:01.871Z,358.247
2022-08-28T20:00:02.011Z,338.003
2022-08-28T20:05:02.127Z,406.842
2022-08-28T20:10:01.913Z,443.93600000000004
2022-08-28T20:15:03.564Z,559.4540000000001
2022-08-28T20:20:03.394Z,431.718
2022-08-28T20:25:01.918Z,420.991
2022-08-28T20:30:04.758Z,407.325
2022-08-28T20:35:01.981Z,327.773
2022-08-28T20:40:04.476Z,336.435
2022-08-28T20:45:01.914Z,584.87
2022-08-28T20:50:01.922Z,356.105
2022-08-28T20:55:02.108Z,376.92900000000003
2022-08-28T21:00:05.407Z,370.204
2022-08-28T21:05:02.171Z,328.258
2022-08-28T21:10:04.725Z,258.812
2022-08-28T21:15:01.988Z,259.407
2022-08-28T21:20:03.029Z,487.034
2022-08-28T21:25:01.927Z,231.912
2022-08-28T21:30:02.231Z,231.203
2022-08-28T21:35:01.956Z,354.672
2022-08-28T21:40:02.309Z,346.173
2022-08-28T21:45:02.015Z,341.891
2022-08-28T21:50:02.073Z,410.92
2022-08-28T21:55:02.134Z,263.092
2022-08-28T22:00:02.024Z,254.62800000000001
2022-08-28T22:05:02.005Z,389.258
2022-08-28T22:10:01.986Z,371.622
2022-08-28T22:15:02.196Z,264.199
2022-08-28T22:20:02.379Z,385.771
2022-08-28T22:25:02.089Z,565.984
2022-08-28T22:30:02.123Z,290.118
2022-08-28T22:35:02.026Z,207.526
2022-08-28T22:40:02.417Z,171.187
2022-08-28T22:45:02.041Z,160.9
2022-08-28T22:50:02.078Z,148.481
2022-08-28T22:55:02.182Z,148.451
2022-08-28T23:00:02.300Z,199.821
2022-08-28T23:05:02.183Z,7009.923
2022-08-28T23:10:02.241Z,7837.434
2022-08-28T23:15:02.079Z,7739.435
2022-08-28T23:20:02.340Z,7640.937
2022-08-28T23:25:02.048Z,7647.642
2022-08-28T23:30:02.070Z,7660.439
2022-08-28T23:35:02.064Z,7672.693
2022-08-28T23:40:02.116Z,7669.063
2022-08-28T23:45:02.153Z,7755.345
2022-08-28T23:50:02.078Z,7790.688
2022-08-28T23:55:02.129Z,7779.161
